createdAt,value
2023-04-24T00:02:19.853Z,10.68
2023-04-24T00:04:46.389Z,10.67
2023-04-24T00:07:12.997Z,10.64
2023-04-24T00:09:39.304Z,10.59
2023-04-24T00:12:05.578Z,10.53
2023-04-24T00:14:31.915Z,10.53
2023-04-24T00:16:58.320Z,10.55
2023-04-24T00:19:24.638Z,10.53
2023-04-24T00:21:51.254Z,10.52
2023-04-24T00:24:17.701Z,10.48
2023-04-24T00:26:44.050Z,10.44
2023-04-24T00:29:10.427Z,10.43
2023-04-24T00:31:36.818Z,10.36
2023-04-24T00:34:03.789Z,10.30
2023-04-24T00:36:30.115Z,10.24
2023-04-24T00:38:56.818Z,10.17
2023-04-24T00:41:24.657Z,10.12
2023-04-24T00:43:51.920Z,10.06
2023-04-24T00:46:18.287Z,10.00
2023-04-24T00:48:44.776Z,9.93
2023-04-24T00:51:11.090Z,9.84
2023-04-24T00:53:37.523Z,9.77
2023-04-24T00:56:04.920Z,9.73
2023-04-24T00:58:31.440Z,9.64
2023-04-24T01:00:58.924Z,9.55
2023-04-24T01:03:26.821Z,9.49
2023-04-24T01:05:54.806Z,9.43
2023-04-24T01:08:23.638Z,9.37
2023-04-24T01:10:51.259Z,9.37
2023-04-24T01:13:21.202Z,9.38
2023-04-24T01:15:47.832Z,9.37
2023-04-24T01:18:14.441Z,9.37
2023-04-24T01:20:41.871Z,9.36
2023-04-24T01:23:08.313Z,9.35
2023-04-24T01:25:34.858Z,9.34
2023-04-24T01:28:01.608Z,9.33
2023-04-24T01:30:28.111Z,9.29
2023-04-24T01:32:55.631Z,9.26
2023-04-24T01:35:22.016Z,9.23
2023-04-24T01:37:48.331Z,9.21
2023-04-24T01:40:14.750Z,9.18
2023-04-24T01:42:41.861Z,9.16
2023-04-24T01:45:10.476Z,9.15
2023-04-24T01:47:37.030Z,9.13
2023-04-24T01:50:03.996Z,9.11
2023-04-24T01:52:31.981Z,9.10
2023-04-24T01:55:00.023Z,9.07
2023-04-24T01:57:26.574Z,9.05
2023-04-24T01:59:52.953Z,9.04
2023-04-24T02:02:19.505Z,9.05
2023-04-24T02:04:45.950Z,9.04
2023-04-24T02:07:15.338Z,9.00
2023-04-24T02:09:41.862Z,8.98
2023-04-24T02:12:08.503Z,8.92
2023-04-24T02:14:34.801Z,8.92
2023-04-24T02:17:01.136Z,8.92
2023-04-24T02:19:28.645Z,8.93
2023-04-24T02:21:55.036Z,8.94
2023-04-24T02:24:21.396Z,8.94
2023-04-24T02:26:47.808Z,8.90
2023-04-24T02:29:14.198Z,8.88
2023-04-24T02:31:41.290Z,8.87
2023-04-24T02:34:07.585Z,8.85
2023-04-24T02:36:33.992Z,8.76
2023-04-24T02:39:00.337Z,8.71
2023-04-24T02:41:26.697Z,8.68
2023-04-24T02:43:53.070Z,8.65
2023-04-24T02:46:19.511Z,8.63
2023-04-24T02:48:45.887Z,8.63
2023-04-24T02:51:12.192Z,8.63
2023-04-24T02:53:38.541Z,8.58
2023-04-24T02:56:04.911Z,8.55
2023-04-24T02:58:31.281Z,8.53
2023-04-24T03:00:58.021Z,8.53
2023-04-24T03:03:24.461Z,8.53
2023-04-24T03:05:50.875Z,8.49
2023-04-24T03:08:17.485Z,8.46
2023-04-24T03:10:44.830Z,8.44
2023-04-24T03:13:16.260Z,8.40
2023-04-24T03:15:42.685Z,8.37
2023-04-24T03:18:09.084Z,8.34
2023-04-24T03:20:35.442Z,8.30
2023-04-24T03:23:02.242Z,8.27
2023-04-24T03:25:29.088Z,8.23
2023-04-24T03:27:55.773Z,8.21
2023-04-24T03:30:42.330Z,8.20
2023-04-24T03:33:08.956Z,8.20
2023-04-24T03:35:37.677Z,8.20
2023-04-24T03:38:07.804Z,8.18
2023-04-24T03:40:52.732Z,8.14
2023-04-24T03:43:42.088Z,8.13
2023-04-24T03:46:08.701Z,8.13
2023-04-24T03:48:37.963Z,8.10
2023-04-24T03:51:04.471Z,8.08
2023-04-24T03:53:31.372Z,8.10
2023-04-24T03:55:58.951Z,8.16
2023-04-24T03:58:25.362Z,8.19
2023-04-24T04:00:51.886Z,8.27
2023-04-24T04:03:36.872Z,8.35
2023-04-24T04:06:03.567Z,8.42
2023-04-24T04:08:30.065Z,8.50
2023-04-24T04:10:56.703Z,8.58
2023-04-24T04:13:23.253Z,8.68
2023-04-24T04:15:49.590Z,8.80
2023-04-24T04:18:16.478Z,8.92
2023-04-24T04:20:43.384Z,9.05
2023-04-24T04:23:11.501Z,9.14
2023-04-24T04:26:01.262Z,9.27
2023-04-24T04:28:36.993Z,9.41
2023-04-24T04:31:03.385Z,9.56
2023-04-24T04:33:29.975Z,9.73
2023-04-24T04:35:56.697Z,9.87
2023-04-24T04:38:24.468Z,9.99
2023-04-24T04:40:58.662Z,10.12
2023-04-24T04:43:27.080Z,10.24
2023-04-24T04:45:53.904Z,10.35
2023-04-24T04:48:46.531Z,10.44
2023-04-24T04:51:12.836Z,10.54
2023-04-24T04:53:39.675Z,10.68
2023-04-24T04:56:06.750Z,10.83
2023-04-24T04:58:39.964Z,11.04
2023-04-24T05:01:08.160Z,11.25
2023-04-24T05:03:39.268Z,11.42
2023-04-24T05:06:08.890Z,11.59
2023-04-24T05:08:37.536Z,11.74
2023-04-24T05:11:13.312Z,11.92
2023-04-24T05:13:40.958Z,12.09
2023-04-24T05:16:18.040Z,12.18
2023-04-24T05:18:44.654Z,12.29
2023-04-24T05:21:13.597Z,12.37
2023-04-24T05:23:43.261Z,12.49
2023-04-24T05:26:10.670Z,12.66
2023-04-24T05:28:42.552Z,12.83
2023-04-24T05:31:10.630Z,12.98
2023-04-24T05:33:37.386Z,13.07
2023-04-24T05:36:03.972Z,13.14
2023-04-24T05:38:30.508Z,13.20
2023-04-24T05:40:57.015Z,13.26
2023-04-24T05:43:25.982Z,13.36
2023-04-24T05:45:55.746Z,13.45
2023-04-24T05:48:22.127Z,13.57
2023-04-24T05:50:48.763Z,13.66
2023-04-24T05:53:15.066Z,13.76
2023-04-24T05:55:41.442Z,13.86
2023-04-24T05:58:07.824Z,13.99
2023-04-24T06:00:35.350Z,14.13
2023-04-24T06:03:05.137Z,14.27
2023-04-24T06:05:41.004Z,14.42
2023-04-24T06:08:07.432Z,14.56
2023-04-24T06:10:36.788Z,14.71
2023-04-24T06:13:05.619Z,14.86
2023-04-24T06:15:33.585Z,15.01
2023-04-24T06:18:20.349Z,15.16
2023-04-24T06:20:55.373Z,15.29
2023-04-24T06:23:29.915Z,15.44
2023-04-24T06:25:56.379Z,15.55
2023-04-24T06:28:22.900Z,15.69
2023-04-24T06:30:49.277Z,15.79
2023-04-24T06:33:21.113Z,15.87
2023-04-24T06:35:48.771Z,15.92
2023-04-24T06:38:15.164Z,16.00
2023-04-24T06:40:41.649Z,16.11
2023-04-24T06:43:08.094Z,16.20
2023-04-24T06:45:34.586Z,16.29
2023-04-24T06:48:01.324Z,16.40
2023-04-24T06:50:27.696Z,16.50
2023-04-24T06:52:54.014Z,16.59
2023-04-24T06:55:20.572Z,16.67
2023-04-24T06:57:49.272Z,16.74
2023-04-24T07:00:15.719Z,16.83
2023-04-24T07:02:42.163Z,16.94
2023-04-24T07:05:08.764Z,17.04
2023-04-24T07:07:35.228Z,17.15
2023-04-24T07:10:01.768Z,17.28
2023-04-24T07:12:28.263Z,17.39
2023-04-24T07:14:55.166Z,17.50
2023-04-24T07:17:24.082Z,17.61
2023-04-24T07:19:50.924Z,17.69
2023-04-24T07:22:17.741Z,17.72
2023-04-24T07:24:44.825Z,17.75
2023-04-24T07:27:11.244Z,17.83
2023-04-24T07:29:37.678Z,17.88
2023-04-24T07:32:04.444Z,17.97
2023-04-24T07:34:33.759Z,18.13
2023-04-24T07:37:00.361Z,18.30
2023-04-24T07:39:26.862Z,18.44
2023-04-24T07:41:55.651Z,18.56
2023-04-24T07:44:22.220Z,18.60
2023-04-24T07:46:48.696Z,18.70
2023-04-24T07:49:16.986Z,18.79
2023-04-24T07:51:45.499Z,18.87
2023-04-24T07:54:23.430Z,18.98
2023-04-24T07:56:49.979Z,19.09
2023-04-24T07:59:16.466Z,19.19
2023-04-24T08:01:43.113Z,19.19
2023-04-24T08:04:09.904Z,19.23
2023-04-24T08:06:36.462Z,19.27
2023-04-24T08:09:03.042Z,19.35
2023-04-24T08:11:30.049Z,19.37
2023-04-24T08:14:10.117Z,19.35
2023-04-24T08:16:37.112Z,19.41
2023-04-24T08:19:04.005Z,19.54
2023-04-24T08:21:30.440Z,19.64
2023-04-24T08:23:57.409Z,19.78
2023-04-24T08:26:24.036Z,19.95
2023-04-24T08:28:50.605Z,20.09
2023-04-24T08:31:17.275Z,20.23
2023-04-24T08:51:57.028Z,21.34
2023-04-24T08:54:26.088Z,21.58
2023-04-24T08:56:54.108Z,21.81
2023-04-24T08:59:32.589Z,21.92
2023-04-24T09:02:01.574Z,22.14
2023-04-24T09:04:29.572Z,22.20
2023-04-24T09:06:57.200Z,22.45
2023-04-24T09:09:24.493Z,22.68
2023-04-24T09:11:51.616Z,22.92
2023-04-24T09:14:19.342Z,23.23
2023-04-24T09:16:46.650Z,23.57
2023-04-24T09:19:13.195Z,23.73
2023-04-24T09:21:39.906Z,23.78
2023-04-24T09:24:07.713Z,23.85
2023-04-24T09:26:37.405Z,24.00
2023-04-24T09:29:04.760Z,24.22
2023-04-24T09:31:31.547Z,24.40
2023-04-24T09:34:02.024Z,24.38
2023-04-24T09:36:29.223Z,24.24
2023-04-24T09:39:08.652Z,24.08
2023-04-24T09:41:45.096Z,24.03
2023-04-24T09:44:14.535Z,23.93
2023-04-24T09:47:01.280Z,23.91
2023-04-24T09:49:29.575Z,24.04
2023-04-24T09:52:22.404Z,24.25
2023-04-24T09:55:14.187Z,24.61
2023-04-24T09:57:47.716Z,24.94
2023-04-24T10:00:17.748Z,25.17
2023-04-24T10:02:50.047Z,25.45
2023-04-24T10:05:23.565Z,25.67
2023-04-24T10:08:12.737Z,25.92
2023-04-24T10:10:40.688Z,26.06
2023-04-24T10:13:16.297Z,26.22
2023-04-24T10:15:48.667Z,26.27
2023-04-24T10:18:15.997Z,26.41
2023-04-24T10:20:42.514Z,26.61
2023-04-24T10:23:28.245Z,26.88
2023-04-24T10:41:50.154Z,27.12
2023-04-24T10:44:18.084Z,27.07
2023-04-24T10:46:47.730Z,27.04
2023-04-24T10:49:15.714Z,27.21
2023-04-24T10:51:50.910Z,27.54
2023-04-24T10:54:28.248Z,28.07
2023-04-24T10:57:14.829Z,28.69
2023-04-24T10:59:42.802Z,29.10
2023-04-24T11:02:10.648Z,29.31
2023-04-24T11:05:00.908Z,29.61
2023-04-24T11:11:04.627Z,30.76
2023-04-24T11:42:31.650Z,30.87
2023-04-24T11:45:19.974Z,31.11
2023-04-24T11:48:09.262Z,30.37
2023-04-24T11:50:40.154Z,29.63
2023-04-24T11:53:08.081Z,29.20
2023-04-24T11:55:36.188Z,29.04
2023-04-24T11:58:04.033Z,28.79
2023-04-24T12:00:34.396Z,28.47
2023-04-24T12:03:08.823Z,28.22
2023-04-24T12:05:38.015Z,28.18
2023-04-24T12:08:08.764Z,28.82
2023-04-24T12:10:40.098Z,29.81
2023-04-24T12:13:10.508Z,30.49
2023-04-24T12:15:41.803Z,31.03
2023-04-24T12:18:12.552Z,31.35
2023-04-24T12:20:43.603Z,31.97
2023-04-24T12:23:14.762Z,32.15
2023-04-24T12:25:48.291Z,31.04
2023-04-24T12:28:19.565Z,29.83
2023-04-24T12:36:51.748Z,28.17
2023-04-24T12:39:37.073Z,28.13
2023-04-24T12:42:06.015Z,28.40
2023-04-24T12:44:54.086Z,29.43
2023-04-24T12:47:47.740Z,31.21
2023-04-24T12:50:22.484Z,31.80
2023-04-24T12:52:51.159Z,32.60
2023-04-24T12:55:27.939Z,33.09
2023-04-24T12:57:58.761Z,33.34
2023-04-24T13:00:29.888Z,33.98
2023-04-24T13:03:00.516Z,34.79
2023-04-24T13:05:28.730Z,35.50
2023-04-24T13:08:12.633Z,35.37
2023-04-24T13:10:51.401Z,33.56
2023-04-24T13:13:21.998Z,31.85
2023-04-24T13:15:52.604Z,31.09
2023-04-24T13:18:20.521Z,30.93
2023-04-24T13:20:48.468Z,30.10
2023-04-24T13:23:18.892Z,29.24
2023-04-24T13:25:54.619Z,28.36
2023-04-24T13:28:24.933Z,27.66
2023-04-24T13:31:00.376Z,27.02
2023-04-24T13:33:47.388Z,26.29
2023-04-24T13:36:15.454Z,26.17
2023-04-24T13:38:43.286Z,26.26
2023-04-24T13:41:33.791Z,27.14
2023-04-24T13:44:05.443Z,27.06
2023-04-24T13:46:33.634Z,26.81
2023-04-24T13:49:05.538Z,26.02
2023-04-24T13:51:36.433Z,25.00
2023-04-24T13:54:15.525Z,23.99
2023-04-24T13:56:43.385Z,23.39
2023-04-24T13:59:12.607Z,22.89
2023-04-24T14:01:43.920Z,22.40
2023-04-24T14:04:25.269Z,21.81
2023-04-24T14:06:59.207Z,21.39
2023-04-24T14:09:30.540Z,21.06
2023-04-24T14:11:58.434Z,20.84
2023-04-24T14:14:34.412Z,20.64
2023-04-24T14:17:18.081Z,20.44
2023-04-24T14:19:46.019Z,20.23
2023-04-24T14:22:22.886Z,20.12
2023-04-24T14:25:03.205Z,19.94
2023-04-24T14:27:30.989Z,19.80
2023-04-24T14:30:02.309Z,19.72
2023-04-24T14:32:50.518Z,19.56
2023-04-24T14:35:31.486Z,19.37
2023-04-24T14:37:59.963Z,19.19
2023-04-24T14:43:28.646Z,18.90
2023-04-24T14:45:56.416Z,18.76
2023-04-24T14:48:34.658Z,18.65
2023-04-24T14:51:05.610Z,18.57
2023-04-24T14:53:49.776Z,18.49
2023-04-24T14:56:21.231Z,18.37
2023-04-24T14:58:49.054Z,18.24
2023-04-24T15:01:17.963Z,18.12
2023-04-24T15:03:46.519Z,18.01
2023-04-24T15:06:37.610Z,17.82
2023-04-24T15:09:18.853Z,17.72
2023-04-24T15:11:46.920Z,17.70
2023-04-24T15:14:15.245Z,17.77
2023-04-24T15:16:43.086Z,17.87
2023-04-24T15:19:18.436Z,18.00
2023-04-24T15:21:53.846Z,18.20
2023-04-24T15:24:27.277Z,18.43
2023-04-24T15:27:00.590Z,18.61
2023-04-24T15:29:29.289Z,18.88
2023-04-24T15:31:57.109Z,19.03
2023-04-24T15:34:27.869Z,19.00
2023-04-24T15:36:55.825Z,19.04
2023-04-24T15:39:26.416Z,19.05
2023-04-24T15:41:57.139Z,19.04
2023-04-24T15:44:34.008Z,19.02
2023-04-24T15:47:02.489Z,18.90
2023-04-24T15:49:32.132Z,18.74
2023-04-24T15:52:00.042Z,18.62
2023-04-24T15:54:28.020Z,18.43
2023-04-24T15:56:55.835Z,18.23
2023-04-24T15:59:26.825Z,18.07
2023-04-24T16:01:55.834Z,17.91
2023-04-24T16:04:23.908Z,17.74
2023-04-24T16:06:51.890Z,17.53
2023-04-24T16:09:20.143Z,17.41
2023-04-24T16:11:48.067Z,17.33
2023-04-24T16:14:15.845Z,17.23
2023-04-24T16:16:44.117Z,17.12
2023-04-24T16:19:15.059Z,16.99
2023-04-24T16:21:42.984Z,16.90
2023-04-24T16:24:10.714Z,16.84
2023-04-24T16:26:40.812Z,16.79
2023-04-24T16:29:08.752Z,16.75
2023-04-24T16:31:36.678Z,16.70
2023-04-24T16:34:04.743Z,16.66
2023-04-24T16:36:32.580Z,16.57
2023-04-24T16:39:00.842Z,16.47
2023-04-24T16:41:28.639Z,16.37
2023-04-24T16:43:56.405Z,16.26
2023-04-24T16:46:24.782Z,16.14
2023-04-24T16:48:55.738Z,16.08
2023-04-24T16:51:26.257Z,16.07
2023-04-24T16:54:03.562Z,16.08
2023-04-24T16:56:31.478Z,16.04
2023-04-24T16:59:01.753Z,16.01
2023-04-24T17:01:29.771Z,15.95
2023-04-24T17:03:57.714Z,15.89
2023-04-24T17:06:26.185Z,15.78
2023-04-24T17:08:54.174Z,15.71
2023-04-24T17:11:21.981Z,15.60
2023-04-24T17:13:49.832Z,15.54
2023-04-24T17:16:17.796Z,15.46
2023-04-24T17:18:50.772Z,15.38
2023-04-24T17:21:24.149Z,15.28
2023-04-24T17:23:56.163Z,15.24
2023-04-24T17:26:26.309Z,15.20
2023-04-24T17:29:01.500Z,15.16
2023-04-24T17:31:29.451Z,15.13
2023-04-24T17:33:57.537Z,15.12
2023-04-24T17:36:34.751Z,15.09
2023-04-24T17:39:22.840Z,15.08
2023-04-24T17:41:51.354Z,15.01
2023-04-24T17:44:19.367Z,14.95
2023-04-24T17:46:47.456Z,14.91
2023-04-24T17:49:15.709Z,14.88
2023-04-24T17:51:43.562Z,14.86
2023-04-24T17:54:11.334Z,14.78
2023-04-24T17:56:48.435Z,14.64
2023-04-24T17:59:22.170Z,14.48
2023-04-24T18:01:53.049Z,14.37
2023-04-24T18:04:31.252Z,14.26
2023-04-24T18:07:19.138Z,14.20
2023-04-24T18:10:07.513Z,14.18
2023-04-24T18:12:35.409Z,14.15
2023-04-24T18:15:13.717Z,14.10
2023-04-24T18:17:44.972Z,14.05
2023-04-24T18:20:13.937Z,14.06
2023-04-24T18:22:45.697Z,14.12
2023-04-24T18:25:16.077Z,14.13
2023-04-24T18:27:51.401Z,14.12
2023-04-24T18:30:19.658Z,14.14
2023-04-24T18:32:50.547Z,14.15
2023-04-24T18:35:34.744Z,14.15
2023-04-24T18:38:22.772Z,14.15
2023-04-24T18:41:12.438Z,14.10
2023-04-24T18:43:43.609Z,14.06
2023-04-24T18:46:14.784Z,14.03
2023-04-24T18:48:43.480Z,14.03
2023-04-24T18:51:11.550Z,14.00
2023-04-24T18:54:12.035Z,13.97
2023-04-24T18:56:40.136Z,13.94
2023-04-24T18:59:08.184Z,13.94
2023-04-24T19:01:36.387Z,13.92
2023-04-24T19:07:26.212Z,13.84
2023-04-24T19:09:54.086Z,13.84
2023-04-24T19:12:45.482Z,13.82
2023-04-24T19:15:14.997Z,13.81
2023-04-24T19:17:43.609Z,13.80
2023-04-24T19:20:11.656Z,13.81
2023-04-24T19:22:39.592Z,13.81
2023-04-24T19:25:07.859Z,13.79
2023-04-24T19:27:44.835Z,13.77
2023-04-24T19:30:12.990Z,13.76
2023-04-24T19:32:40.830Z,13.74
2023-04-24T19:35:11.939Z,13.73
2023-04-24T19:37:40.752Z,13.73
2023-04-24T19:40:08.873Z,13.73
2023-04-24T19:42:43.948Z,13.73
2023-04-24T19:45:12.981Z,13.75
2023-04-24T19:47:41.033Z,13.78
2023-04-24T19:50:09.289Z,13.78
2023-04-24T19:52:39.933Z,13.77
2023-04-24T19:55:08.325Z,13.76
2023-04-24T19:57:36.336Z,13.74
2023-04-24T20:00:04.447Z,13.69
2023-04-24T20:02:33.321Z,13.65
2023-04-24T20:05:01.906Z,13.61
2023-04-24T20:07:30.132Z,13.60
2023-04-24T20:09:57.984Z,13.59
2023-04-24T20:12:25.893Z,13.55
2023-04-24T20:14:56.467Z,13.53
2023-04-24T20:17:24.250Z,13.54
2023-04-24T20:19:52.083Z,13.56
2023-04-24T20:22:20.233Z,13.55
2023-04-24T20:24:50.608Z,13.46
2023-04-24T20:27:18.410Z,13.43
2023-04-24T20:29:46.206Z,13.43
2023-04-24T20:32:13.926Z,13.39
2023-04-24T20:34:42.073Z,13.37
2023-04-24T20:37:10.032Z,13.40
2023-04-24T20:39:37.956Z,13.41
2023-04-24T20:42:05.839Z,13.43
2023-04-24T20:44:33.830Z,13.46
2023-04-24T20:47:01.611Z,13.46
2023-04-24T20:49:29.599Z,13.43
2023-04-24T20:51:59.962Z,13.43
2023-04-24T20:54:27.944Z,13.42
2023-04-24T20:56:55.896Z,13.42
2023-04-24T20:59:23.891Z,13.43
2023-04-24T21:01:51.744Z,13.40
2023-04-24T21:04:19.661Z,13.37
2023-04-24T21:06:47.469Z,13.37
2023-04-24T21:09:15.202Z,13.38
2023-04-24T21:11:43.319Z,13.35
2023-04-24T21:14:11.160Z,13.34
2023-04-24T21:16:39.084Z,13.35
2023-04-24T21:19:07.001Z,13.34
2023-04-24T21:21:34.797Z,13.30
2023-04-24T21:24:02.494Z,13.27
2023-04-24T21:26:30.432Z,13.25
2023-04-24T21:28:58.235Z,13.26
2023-04-24T21:31:29.100Z,13.27
2023-04-24T21:33:56.901Z,13.25
2023-04-24T21:36:24.707Z,13.24
2023-04-24T21:38:52.581Z,13.20
2023-04-24T21:41:20.504Z,13.17
2023-04-24T21:43:51.198Z,13.12
2023-04-24T21:46:19.392Z,13.05
2023-04-24T21:48:47.397Z,13.01
2023-04-24T21:51:15.135Z,12.97
2023-04-24T21:53:48.895Z,12.98
2023-04-24T21:56:24.552Z,12.97
2023-04-24T21:58:53.941Z,12.96
2023-04-24T22:01:33.610Z,12.93
2023-04-24T22:04:15.567Z,12.85
2023-04-24T22:06:50.642Z,12.76
2023-04-24T22:09:24.676Z,12.68
2023-04-24T22:12:17.417Z,12.45
2023-04-24T22:14:53.258Z,12.17
2023-04-24T22:17:23.648Z,11.89
2023-04-24T22:19:54.228Z,11.66
2023-04-24T22:22:22.027Z,11.46
2023-04-24T22:24:50.056Z,11.29
2023-04-24T22:27:17.950Z,11.15
2023-04-24T22:29:57.430Z,11.00
2023-04-24T22:32:27.808Z,10.85
2023-04-24T22:34:55.684Z,10.74
2023-04-24T22:37:23.430Z,10.68
2023-04-24T22:39:51.824Z,10.63
2023-04-24T22:42:32.577Z,10.54
2023-04-24T22:45:13.429Z,10.49
2023-04-24T22:47:44.237Z,10.43
2023-04-24T22:50:12.132Z,10.38
2023-04-24T22:52:40.154Z,10.35
2023-04-24T22:55:08.347Z,10.32
2023-04-24T22:57:45.330Z,10.33
2023-04-24T23:00:13.295Z,10.30
2023-04-24T23:02:41.444Z,10.29
2023-04-24T23:05:16.978Z,10.26
2023-04-24T23:07:44.787Z,10.25
2023-04-24T23:10:12.545Z,10.24
2023-04-24T23:12:42.775Z,10.22
2023-04-24T23:15:10.977Z,10.22
2023-04-24T23:17:44.087Z,10.21
2023-04-24T23:20:12.152Z,10.18
2023-04-24T23:22:40.112Z,10.17
2023-04-24T23:25:08.073Z,10.16
2023-04-24T23:27:35.853Z,10.16
2023-04-24T23:30:04.357Z,10.15
2023-04-24T23:32:32.468Z,10.11
2023-04-24T23:35:00.221Z,10.10
2023-04-24T23:37:28.254Z,10.10
2023-04-24T23:39:56.535Z,10.09
2023-04-24T23:42:24.242Z,10.08
2023-04-24T23:44:59.858Z,10.08
2023-04-24T23:47:27.784Z,10.08
2023-04-24T23:49:55.747Z,10.07
2023-04-24T23:52:23.896Z,10.07
2023-04-24T23:54:51.731Z,10.09
2023-04-24T23:57:22.714Z,10.10
2023-04-24T23:59:50.714Z,10.10
